AirNav   TITAN Aviation Fuels
 
 1572 users online  

55G Arnold Field Airport
Croswell, Michigan, USA

GOING TO CROSWELL?


FAA INFORMATION EFFECTIVE 11 AUGUST 2022

Location

FAA Identifier: 55G
Lat/Long: 43-17-52.0800N 082-36-28.3100W
43-17.868000N 082-36.471833W
43.2978000,-82.6078639
(estimated)
Elevation: 784 ft. / 239.0 m (surveyed)
Variation: 07W (1985)
From city: 2 miles NE of CROSWELL, MI
Time zone: UTC -4 (UTC -5 during Standard Time)
Zip code: 48422

Airport Operations

Airport use: Open to the public
Activation date: 05/1968
Control tower: no
ARTCC: CLEVELAND CENTER
FSS: LANSING FLIGHT SERVICE STATION
NOTAMs facility: LAN (NOTAM-D service available)
Attendance: UNATNDD
Wind indicator: yes
Segmented circle: no

Airport Communications

CTAF/UNICOM: 122.8

Airport Services

Parking: tiedowns
Bottled oxygen: NONE
Bulk oxygen: NONE

Runway Information

Runway 18/36

Dimensions: 2570 x 140 ft. / 783 x 43 m
Surface: turf, in good condition
Runway edge markings: RWY AND DSPLCD THLD MARKED WITH 3' YELLOW CONES.
RUNWAY 18  RUNWAY 36
Latitude: 43-18.080000N43-17.657500N
Longitude: 082-36.486667W082-36.457000W
Elevation: 784.0 ft.780.0 ft.
Traffic pattern: leftleft
Runway heading: 184 magnetic, 177 true004 magnetic, 357 true
Displaced threshold: 600 ft.570 ft.
Runway end identifier lights: nono
Obstructions: 76 ft. trees, 1250 ft. from runway, 16:1 slope to clear
APCH RATIO 24:1 AT DSPLCD THLD.
29 ft. pline, lighted, 11 ft. from runway, 97 ft. left of centerline
APCH RATIO AT DSPLCD THLD 20:1; DSPLCD THLD 5 FT ABOVE END OF RY.

Airport Ownership and Management from official FAA records

Ownership: Privately-owned
Owner: KENNETH LANDSBURG
4343 CROSWELL RD
CROSWELL, MI 48422
Phone 810-679-2487
Manager: BART PERRY
4343 CROSWELL ROAD
CROSWELL, MI 48422
Phone (810) 304-1018

Airport Operational Statistics

Aircraft based on the field: 6
Single engine airplanes: 4
Ultralights: 2
    
Aircraft operations: 200/year *
50% transient general aviation
50% local general aviation
* for 12-month period ending 31 December 2019

Additional Remarks

ARPT CLSD NOV-MAR. WINTER OPNS SKIS ONLY.
FOR CD CTC CLEVELAND ARTCC AT 440-774-0224, IF UNA CTC 440-774-0490.
BIRDS AND DEER INVOF RWY.

Instrument Procedures

There are no published instrument procedures at 55G.

Some nearby airports with instrument procedures:

77G - Marlette Township Airport (21 nm W)
KPHN - St Clair County International Airport (23 nm S)
D95 - Dupont/Lapeer Airport (32 nm SW)
KBAX - Huron County Memorial Airport (33 nm NW)
D98 - Romeo State Airport (34 nm SW)
 
Loc | Ops | Rwys | IFR | FBO | Links
Com | Nav | Svcs | Stats | Notes
Area around 55G (Arnold Field Airport)
 
Road maps at: MapQuest Bing Google
 
Aerial photo
No photo
 
Sectional chart

 
Airport distance calculator
Flying to Arnold Field Airport? Find the distance to fly.

From to 55G

Sunrise and sunset
Times for 18-Aug-2022
 Local
(UTC-4)
 Zulu
(UTC)
Morning civil twilight06:0910:09
Sunrise06:4010:40
Sunset20:2900:29
Evening civil twilight20:5900:59

Current date and time
Zulu (UTC)  18-Aug-2022 21:40:38
Local (UTC-4)  18-Aug-2022 17:40:38
 
METAR
CYZR 
22nm SE 
182100Z AUTO 06005KT 360V080 9SM CLR 26/15 A2995 RMK SLP142 DENSITY ALT 2000FT
KPHN 
23nm S 
182115Z AUTO 22005KT 10SM BKN060 28/11 A2995 RMK AO2
KD95 
32nm SW 
182115Z AUTO 28004KT 10SM CLR 28/09 A2996 RMK AO2 T02800092
KBAX 
33nm NW 
182115Z AUTO 00000KT 10SM SCT070 SCT090 28/11 A2995 RMK AO2 T02810106
KCFS 
38nm W 
182115Z AUTO 24003KT 10SM CLR 29/14 A2995 RMK AO2 T02900141
KMTC 
42nm S 
182056Z 17013KT 10SM FEW050 SCT075 SCT250 26/18 A2993 RMK AO2A MDT CU W SLP138 T02620175 56012
KP58 
44nm N 
182055Z AUTO 12011KT 24/18 A2995 RMK AO1 SLP135 T02390183 56011
TAF
CYZR 
22nm SE 
181940Z 1820/1902 05008KT P6SM FEW060 TEMPO 1820/1901 P6SM -SHRA BKN060 FM190100 VRB03KT P6SM FEW070 RMK FCST BASED ON AUTO OBS. NXT FCST BY 190800Z
NOTAMs
Click for the latest NOTAMs
NOTAMs are issued by the DoD/FAA and will open in a separate window not controlled by AirNav.

 

 
 

Would you like to see your business listed on this page?

 If your business provides an interesting product or service to pilots, flight crews, aircraft, or users of the Arnold Field Airport, you should consider listing it here.  To start the listing process, click on the button below
 
Add a business
 

Other Pages about Arnold Field Airport

Page from the Michigan Airport Directory (PDF)
 
Update a link
 
Copyright © AirNav, LLC. All rights reserved. Privacy Policy  Contact